Terminal Aerodrome Forecast
Issued by NWS Sioux Falls, SD

Home | Current Version | Previous Version | Graphics & Text | Print | Product List | Glossary Off
Versions: 1 2 3 4 5 6 7 8 9 10 11 12 13 14

845
FTUS43 KFSD 211554 AAB
TAFHON
TAF AMD
KHON 211554Z 2116/2212 10008KT P6SM -SHRA VCTS SCT020 BKN035CB
     FM211800 02006KT P6SM BKN050
     FM220100 35009KT P6SM SCT120
     FM221100 33005KT P6SM FEW250=

USA.gov is the U.S. government's official web portal to all federal, state and local government web resources and services.